Terminal Aerodrome Forecast
Issued by NWS

Home | Current Version | Previous Version | Text Only | Print | Product List | Glossary On
Versions: 1 2 3 4 5 6 7 8 9 10 11 12 13 14 15 16 17 18 19 20 21 22 23 24 25 26 27 28 29 30 31 32 33
000
FTUS43 KDLH 110800 AAA
TAFHYR
TAF AMD
KHYR 110825Z 1108/1206 19008KT P6SM -RA BKN080 OVC110 WS020/19040KT
      TEMPO 1109/1112 3SM -TSRA SCT035CB OVC050
     FM111400 19012KT P6SM SCT035 BKN100
     FM111800 19012G18KT P6SM VCSH SCT035 BKN080
     FM112100 20007KT P6SM VCTS SCT025CB BKN060
     FM120300 21003KT P6SM SCT080=

USA.gov is the U.S. government's official web portal to all federal, state and local government web resources and services.